createdAt,value
2023-05-24T00:00:52.482Z,3.88
2023-05-24T00:03:25.619Z,3.70
2023-05-24T00:05:58.019Z,3.80
2023-05-24T00:08:30.369Z,3.92
2023-05-24T00:11:02.674Z,4.13
2023-05-24T00:13:34.997Z,3.80
2023-05-24T00:16:07.282Z,3.90
2023-05-24T00:18:40.594Z,3.47
2023-05-24T00:21:13.549Z,3.25
2023-05-24T00:23:46.815Z,2.95
2023-05-24T00:26:19.151Z,3.45
2023-05-24T00:28:58.611Z,3.63
2023-05-24T00:31:31.015Z,3.22
2023-05-24T00:34:04.084Z,4.85
2023-05-24T00:36:37.516Z,3.58
2023-05-24T00:39:09.852Z,3.45
2023-05-24T00:41:42.200Z,3.65
2023-05-24T00:44:15.226Z,3.78
2023-05-24T00:46:48.037Z,3.65
2023-05-24T00:49:22.816Z,3.47
2023-05-24T00:51:55.262Z,4.03
2023-05-24T00:54:28.303Z,3.17
2023-05-24T00:57:01.494Z,3.00
2023-05-24T00:59:34.125Z,2.88
2023-05-24T01:02:06.602Z,3.13
2023-05-24T01:04:39.706Z,3.90
2023-05-24T01:07:20.603Z,4.00
2023-05-24T01:10:03.489Z,4.18
2023-05-24T01:12:50.569Z,3.90
2023-05-24T01:15:28.142Z,3.25
2023-05-24T01:18:07.016Z,3.50
2023-05-24T01:20:41.502Z,3.55
2023-05-24T01:23:33.914Z,3.40
2023-05-24T01:26:18.978Z,3.35
2023-05-24T01:28:53.911Z,3.50
2023-05-24T01:31:26.739Z,3.63
2023-05-24T01:33:59.084Z,2.88
2023-05-24T01:36:31.414Z,3.22
2023-05-24T01:39:05.002Z,3.30
2023-05-24T01:41:41.126Z,3.10
2023-05-24T01:44:24.858Z,3.55
2023-05-24T01:47:04.372Z,3.67
2023-05-24T01:52:15.597Z,2.63
2023-05-24T01:54:52.027Z,3.50
2023-05-24T01:57:26.524Z,3.22
2023-05-24T02:00:01.932Z,3.25
2023-05-24T02:02:45.468Z,3.08
2023-05-24T02:05:17.945Z,3.17
2023-05-24T02:07:50.802Z,3.55
2023-05-24T02:10:23.342Z,3.17
2023-05-24T02:12:55.769Z,3.25
2023-05-24T02:15:29.685Z,4.72
2023-05-24T02:18:03.561Z,3.15
2023-05-24T02:20:36.433Z,3.35
2023-05-24T02:23:08.819Z,2.97
2023-05-24T02:25:42.722Z,2.90
2023-05-24T02:28:15.327Z,4.10
2023-05-24T02:30:48.406Z,3.00
2023-05-24T02:33:20.861Z,2.83
2023-05-24T02:35:53.195Z,3.75
2023-05-24T02:38:25.846Z,2.80
2023-05-24T02:40:58.210Z,3.08
2023-05-24T02:43:30.548Z,3.83
2023-05-24T02:46:03.617Z,2.25
2023-05-24T02:48:36.350Z,2.58
2023-05-24T02:51:08.761Z,2.38
2023-05-24T02:53:42.809Z,2.45
2023-05-24T02:56:16.817Z,3.47
2023-05-24T02:58:49.286Z,3.20
2023-05-24T03:01:22.753Z,3.08
2023-05-24T03:03:56.982Z,3.38
2023-05-24T03:06:29.386Z,4.93
2023-05-24T03:09:02.017Z,5.20
2023-05-24T03:11:34.893Z,3.95
2023-05-24T03:14:09.374Z,3.67
2023-05-24T03:16:42.701Z,3.33
2023-05-24T03:19:16.641Z,3.33
2023-05-24T03:21:49.010Z,3.85
2023-05-24T03:24:21.372Z,3.47
2023-05-24T03:26:54.160Z,3.05
2023-05-24T03:29:26.937Z,2.83
2023-05-24T03:32:00.979Z,3.65
2023-05-24T03:34:33.345Z,3.60
2023-05-24T03:37:06.117Z,3.38
2023-05-24T03:39:38.474Z,2.78
2023-05-24T03:42:33.804Z,4.07
2023-05-24T03:45:07.533Z,3.92
2023-05-24T03:47:40.684Z,3.30
2023-05-24T03:50:13.668Z,3.50
2023-05-24T03:52:47.104Z,3.00
2023-05-24T03:55:19.605Z,3.53
2023-05-24T03:57:54.902Z,3.53
2023-05-24T04:00:27.257Z,3.88
2023-05-24T04:03:01.010Z,3.17
2023-05-24T04:05:35.005Z,3.42
2023-05-24T04:08:07.664Z,3.85
2023-05-24T04:10:43.303Z,3.03
2023-05-24T04:13:17.209Z,3.00
2023-05-24T04:15:49.531Z,3.13
2023-05-24T04:18:22.607Z,3.90
2023-05-24T04:20:55.344Z,3.63
2023-05-24T04:23:27.624Z,3.75
2023-05-24T04:26:00.005Z,2.78
2023-05-24T04:28:32.987Z,3.00
2023-05-24T04:31:06.080Z,3.35
2023-05-24T04:33:39.069Z,3.40
2023-05-24T04:36:12.698Z,2.97
2023-05-24T04:38:45.635Z,3.20
2023-05-24T04:41:17.924Z,4.03
2023-05-24T04:43:50.210Z,2.70
2023-05-24T04:46:22.651Z,2.58
2023-05-24T04:48:58.470Z,2.72
2023-05-24T04:51:31.001Z,2.80
2023-05-24T04:54:07.961Z,2.15
2023-05-24T04:56:40.515Z,2.38
2023-05-24T04:59:12.785Z,3.13
2023-05-24T05:01:45.338Z,2.28
2023-05-24T05:04:18.880Z,3.33
2023-05-24T05:06:51.813Z,3.75
2023-05-24T05:09:24.173Z,4.00
2023-05-24T05:11:56.477Z,2.92
2023-05-24T05:14:28.983Z,2.53
2023-05-24T05:17:01.328Z,3.05
2023-05-24T05:19:35.074Z,2.78
2023-05-24T05:22:07.420Z,3.38
2023-05-24T05:24:39.765Z,3.22
2023-05-24T05:27:12.093Z,3.05
2023-05-24T05:29:44.454Z,3.20
2023-05-24T05:32:16.828Z,2.90
2023-05-24T05:34:49.830Z,2.60
2023-05-24T05:37:22.208Z,3.47
2023-05-24T05:39:54.530Z,2.60
2023-05-24T05:42:26.899Z,2.95
2023-05-24T05:44:59.202Z,2.70
2023-05-24T05:47:31.563Z,3.25
2023-05-24T05:50:05.349Z,2.50
2023-05-24T05:52:38.105Z,2.33
2023-05-24T05:55:11.520Z,2.58
2023-05-24T05:57:43.870Z,2.53
2023-05-24T06:00:17.032Z,2.58
2023-05-24T06:02:49.567Z,2.92
2023-05-24T06:05:22.639Z,2.72
2023-05-24T06:07:55.017Z,2.90
2023-05-24T06:10:27.405Z,2.83
2023-05-24T06:13:01.623Z,2.45
2023-05-24T06:15:33.905Z,2.78
2023-05-24T06:18:07.199Z,2.70
2023-05-24T06:20:40.367Z,3.25
2023-05-24T06:23:12.870Z,2.90
2023-05-24T06:25:45.223Z,2.78
2023-05-24T06:28:17.562Z,3.08
2023-05-24T06:30:50.013Z,3.28
2023-05-24T06:33:22.425Z,2.83
2023-05-24T06:35:55.584Z,3.75
2023-05-24T06:38:27.978Z,3.08
2023-05-24T06:41:00.395Z,3.78
2023-05-24T06:43:33.133Z,4.03
2023-05-24T06:46:05.564Z,3.40
2023-05-24T06:48:37.969Z,3.53
2023-05-24T06:51:11.070Z,3.13
2023-05-24T06:53:43.914Z,3.58
2023-05-24T06:56:16.351Z,3.08
2023-05-24T06:58:48.708Z,3.13
2023-05-24T07:01:21.743Z,3.95
2023-05-24T07:03:54.222Z,2.83
2023-05-24T07:06:27.212Z,3.85
2023-05-24T07:09:01.154Z,3.13
2023-05-24T07:11:33.517Z,3.25
2023-05-24T07:14:05.962Z,3.03
2023-05-24T07:16:38.364Z,2.95
2023-05-24T07:19:10.723Z,2.80
2023-05-24T07:21:43.699Z,2.85
2023-05-24T07:24:16.458Z,3.28
2023-05-24T07:26:49.417Z,2.40
2023-05-24T07:29:21.760Z,3.05
2023-05-24T07:31:55.708Z,3.10
2023-05-24T07:34:29.447Z,2.78
2023-05-24T07:37:03.022Z,3.35
2023-05-24T07:39:35.393Z,2.75
2023-05-24T07:42:07.835Z,2.85
2023-05-24T07:44:40.171Z,3.15
2023-05-24T07:47:12.481Z,3.88
2023-05-24T07:49:44.957Z,3.53
2023-05-24T07:52:17.914Z,3.30
2023-05-24T07:54:50.319Z,3.33
2023-05-24T07:57:23.098Z,2.70
2023-05-24T07:59:55.450Z,2.78
2023-05-24T08:02:28.305Z,2.70
2023-05-24T08:05:01.222Z,3.10
2023-05-24T08:07:34.541Z,3.42
2023-05-24T08:10:09.685Z,3.20
2023-05-24T08:12:42.207Z,2.88
2023-05-24T08:15:14.598Z,2.97
2023-05-24T08:17:47.744Z,2.70
2023-05-24T08:20:20.277Z,2.60
2023-05-24T08:22:53.331Z,2.47
2023-05-24T08:25:26.548Z,3.10
2023-05-24T08:27:58.910Z,2.90
2023-05-24T08:30:31.598Z,2.95
2023-05-24T08:33:04.146Z,2.63
2023-05-24T08:35:36.477Z,2.97
2023-05-24T08:38:09.537Z,2.70
2023-05-24T08:40:42.743Z,2.85
2023-05-24T08:43:15.360Z,4.40
2023-05-24T08:45:49.471Z,3.63
2023-05-24T08:48:23.881Z,3.17
2023-05-24T08:50:57.909Z,3.15
2023-05-24T08:53:34.349Z,2.60
2023-05-24T08:56:08.251Z,2.45
2023-05-24T08:58:41.001Z,3.70
2023-05-24T09:01:13.896Z,2.58
2023-05-24T09:03:47.398Z,2.83
2023-05-24T09:06:19.817Z,2.38
2023-05-24T09:08:53.402Z,3.40
2023-05-24T09:11:26.898Z,3.00
2023-05-24T09:14:02.410Z,2.55
2023-05-24T09:16:35.327Z,2.60
2023-05-24T09:19:07.664Z,2.92
2023-05-24T09:21:40.360Z,2.70
2023-05-24T09:24:13.726Z,3.20
2023-05-24T09:26:48.999Z,2.45
2023-05-24T09:29:23.763Z,2.67
2023-05-24T09:31:56.753Z,3.13
2023-05-24T09:34:29.138Z,2.38
2023-05-24T09:37:02.162Z,2.55
2023-05-24T09:39:35.335Z,2.50
2023-05-24T09:42:07.827Z,2.60
2023-05-24T09:44:40.152Z,2.78
2023-05-24T09:47:13.098Z,2.45
2023-05-24T09:49:48.532Z,2.22
2023-05-24T09:52:22.564Z,2.10
2023-05-24T09:54:55.725Z,2.10
2023-05-24T09:57:28.091Z,2.35
2023-05-24T10:00:13.986Z,2.67
2023-05-24T10:02:53.505Z,1.95
2023-05-24T10:05:26.990Z,2.20
2023-05-24T10:08:00.362Z,1.77
2023-05-24T10:10:33.718Z,2.08
2023-05-24T10:13:06.895Z,2.30
2023-05-24T10:15:39.244Z,2.60
2023-05-24T10:18:13.853Z,2.70
2023-05-24T10:20:47.350Z,2.63
2023-05-24T10:23:24.121Z,2.55
2023-05-24T10:26:03.535Z,2.30
2023-05-24T10:28:40.440Z,1.85
2023-05-24T10:31:16.195Z,2.08
2023-05-24T10:33:51.213Z,1.92
2023-05-24T10:36:25.446Z,2.25
2023-05-24T10:38:58.049Z,2.25
2023-05-24T10:41:39.431Z,2.10
2023-05-24T10:44:12.741Z,1.90
2023-05-24T10:47:08.083Z,1.77
2023-05-24T10:49:49.955Z,1.83
2023-05-24T10:52:33.775Z,2.35
2023-05-24T10:55:08.893Z,1.63
2023-05-24T10:57:41.951Z,1.50
2023-05-24T11:03:08.767Z,2.38
2023-05-24T11:05:52.975Z,2.00
2023-05-24T11:08:30.344Z,1.63
2023-05-24T11:11:22.381Z,2.15
2023-05-24T11:14:01.038Z,2.58
2023-05-24T11:16:34.577Z,2.13
2023-05-24T11:19:16.621Z,1.80
2023-05-24T11:21:50.840Z,2.20
2023-05-24T11:24:24.683Z,2.33
2023-05-24T11:26:57.806Z,1.80
2023-05-24T11:29:30.869Z,2.17
2023-05-24T11:32:04.120Z,2.10
2023-05-24T11:34:39.374Z,1.95
2023-05-24T11:37:13.936Z,2.38
2023-05-24T11:39:51.888Z,1.80
2023-05-24T11:42:24.276Z,2.40
2023-05-24T11:44:57.332Z,2.00
2023-05-24T11:47:29.737Z,2.05
2023-05-24T11:50:02.972Z,1.90
2023-05-24T11:52:39.411Z,2.45
2023-05-24T11:55:14.965Z,2.45
2023-05-24T11:57:57.599Z,1.92
2023-05-24T12:00:31.148Z,2.60
2023-05-24T12:03:06.865Z,2.28
2023-05-24T12:05:39.275Z,2.42
2023-05-24T12:08:13.473Z,2.40
2023-05-24T12:10:48.224Z,2.33
2023-05-24T12:13:22.924Z,2.58
2023-05-24T12:15:57.483Z,2.40
2023-05-24T12:18:30.294Z,2.22
2023-05-24T12:21:08.550Z,2.35
2023-05-24T12:23:40.900Z,2.13
2023-05-24T12:26:15.536Z,2.70
2023-05-24T12:28:53.793Z,2.05
2023-05-24T12:31:27.257Z,2.03
2023-05-24T12:33:59.665Z,2.33
2023-05-24T12:36:32.736Z,2.15
2023-05-24T12:39:21.597Z,2.22
2023-05-24T12:41:55.348Z,2.40
2023-05-24T12:44:28.812Z,2.40
2023-05-24T12:47:03.681Z,1.60
2023-05-24T12:49:36.421Z,2.42
2023-05-24T12:52:08.914Z,2.00
2023-05-24T12:54:41.314Z,2.22
2023-05-24T12:57:13.815Z,1.95
2023-05-24T12:59:46.720Z,2.65
2023-05-24T13:02:19.804Z,3.38
2023-05-24T13:04:59.805Z,2.42
2023-05-24T13:07:32.199Z,1.92
2023-05-24T13:10:05.495Z,2.15
2023-05-24T13:12:38.528Z,2.00
2023-05-24T13:15:11.914Z,2.20
2023-05-24T13:17:45.218Z,2.38
2023-05-24T13:20:21.328Z,2.20
2023-05-24T13:22:53.682Z,4.55
2023-05-24T13:25:26.446Z,4.53
2023-05-24T13:27:59.293Z,2.50
2023-05-24T13:30:31.677Z,2.30
2023-05-24T13:33:05.199Z,3.90
2023-05-24T13:35:37.688Z,2.17
2023-05-24T13:38:10.333Z,2.78
2023-05-24T13:40:42.976Z,3.00
2023-05-24T13:43:15.665Z,2.70
2023-05-24T13:45:48.049Z,2.03
2023-05-24T13:48:21.089Z,2.20
2023-05-24T13:50:53.493Z,2.08
2023-05-24T13:53:27.647Z,2.53
2023-05-24T13:56:00.443Z,2.33
2023-05-24T13:58:32.922Z,4.00
2023-05-24T14:01:05.431Z,3.20
2023-05-24T14:03:40.275Z,2.75
2023-05-24T14:06:12.669Z,2.45
2023-05-24T14:08:45.272Z,2.65
2023-05-24T14:11:18.871Z,2.60
2023-05-24T14:14:57.174Z,2.55
2023-05-24T14:16:50.984Z,2.67
2023-05-24T14:19:23.994Z,2.47
2023-05-24T14:21:56.469Z,2.42
2023-05-24T14:24:28.791Z,2.65
2023-05-24T14:27:01.596Z,2.97
2023-05-24T14:29:33.940Z,2.35
2023-05-24T14:32:06.445Z,2.63
2023-05-24T14:34:39.692Z,2.78
2023-05-24T14:37:12.034Z,2.95
2023-05-24T14:39:44.383Z,2.58
2023-05-24T14:42:16.779Z,2.67
2023-05-24T14:44:49.102Z,2.35
2023-05-24T14:47:21.419Z,2.60
2023-05-24T14:49:54.434Z,3.15
2023-05-24T14:52:27.022Z,2.22
2023-05-24T14:54:59.342Z,2.05
2023-05-24T14:57:31.704Z,2.80
2023-05-24T15:00:05.056Z,3.55
2023-05-24T15:02:37.748Z,2.53
2023-05-24T15:05:10.851Z,2.40
2023-05-24T15:07:43.187Z,2.38
2023-05-24T15:10:15.516Z,1.90
2023-05-24T15:12:48.211Z,1.88
2023-05-24T15:15:21.842Z,2.08
2023-05-24T15:17:54.291Z,2.08
2023-05-24T15:20:27.463Z,2.45
2023-05-24T15:22:59.973Z,2.60
2023-05-24T15:25:32.792Z,1.80
2023-05-24T15:28:05.147Z,2.25
2023-05-24T15:30:37.451Z,2.58
2023-05-24T15:33:10.062Z,2.92
2023-05-24T15:35:43.312Z,2.33
2023-05-24T15:38:16.950Z,2.97
2023-05-24T15:40:49.333Z,2.70
2023-05-24T15:43:21.706Z,2.70
2023-05-24T15:46:14.249Z,2.63
2023-05-24T15:48:46.662Z,2.83
2023-05-24T15:51:57.521Z,3.42
2023-05-24T15:54:12.158Z,2.92
2023-05-24T15:56:44.516Z,3.10
2023-05-24T15:59:16.833Z,2.22
2023-05-24T16:01:49.182Z,2.80
2023-05-24T16:07:35.991Z,2.40
2023-05-24T16:10:08.509Z,2.42
2023-05-24T16:12:41.026Z,2.65
2023-05-24T16:15:15.818Z,2.60
2023-05-24T16:17:48.183Z,2.33
2023-05-24T16:20:32.538Z,2.05
2023-05-24T16:23:05.606Z,2.20
2023-05-24T16:25:37.925Z,2.50
2023-05-24T16:28:10.276Z,2.38
2023-05-24T16:30:42.782Z,2.83
2023-05-24T16:33:15.491Z,2.35
2023-05-24T16:35:54.347Z,2.55
2023-05-24T16:38:27.373Z,1.80
2023-05-24T16:40:59.667Z,2.60
2023-05-24T16:43:32.156Z,2.40
2023-05-24T16:46:04.718Z,2.40
2023-05-24T16:48:37.083Z,2.20
2023-05-24T16:51:09.689Z,2.50
2023-05-24T16:53:42.702Z,2.08
2023-05-24T16:56:15.194Z,2.40
2023-05-24T16:58:47.522Z,2.00
2023-05-24T17:01:19.961Z,1.88
2023-05-24T17:03:52.490Z,2.00
2023-05-24T17:06:28.026Z,2.65
2023-05-24T17:09:01.468Z,2.00
2023-05-24T17:11:33.804Z,2.70
2023-05-24T17:14:06.444Z,2.35
2023-05-24T17:16:38.862Z,3.78
2023-05-24T17:19:13.221Z,3.40
2023-05-24T17:21:45.560Z,2.88
2023-05-24T17:24:24.490Z,2.30
2023-05-24T17:26:56.845Z,2.40
2023-05-24T17:29:29.551Z,2.67
2023-05-24T17:32:02.089Z,2.45
2023-05-24T17:34:34.540Z,2.58
2023-05-24T17:37:06.896Z,3.63
2023-05-24T17:39:39.885Z,2.17
2023-05-24T17:42:12.207Z,2.67
2023-05-24T17:44:44.556Z,2.20
2023-05-24T17:47:16.911Z,2.28
2023-05-24T17:49:49.265Z,2.42
2023-05-24T17:52:21.617Z,2.42
2023-05-24T17:54:55.975Z,2.60
2023-05-24T17:57:28.376Z,2.63
2023-05-24T18:00:01.327Z,2.45
2023-05-24T18:02:33.714Z,2.75
2023-05-24T18:05:06.984Z,2.60
2023-05-24T18:07:39.395Z,2.38
2023-05-24T18:10:12.557Z,2.90
2023-05-24T18:12:44.885Z,2.65
2023-05-24T18:15:17.268Z,3.63
2023-05-24T18:17:49.859Z,3.22
2023-05-24T18:20:22.347Z,3.58
2023-05-24T18:22:54.694Z,3.28
2023-05-24T18:25:27.705Z,3.22
2023-05-24T18:28:00.185Z,3.15
2023-05-24T18:30:32.826Z,2.97
2023-05-24T18:33:08.213Z,3.05
2023-05-24T18:35:41.001Z,3.42
2023-05-24T18:38:13.570Z,3.40
2023-05-24T18:40:51.553Z,3.63
2023-05-24T18:43:23.857Z,3.33
2023-05-24T18:45:56.228Z,3.55
2023-05-24T18:48:28.622Z,2.88
2023-05-24T18:51:01.648Z,2.80
2023-05-24T18:53:34.072Z,2.72
2023-05-24T18:56:07.075Z,3.50
2023-05-24T18:58:40.676Z,2.67
2023-05-24T19:01:13.120Z,2.40
2023-05-24T19:03:45.468Z,3.30
2023-05-24T19:06:17.905Z,3.45
2023-05-24T19:08:50.464Z,2.83
2023-05-24T19:11:23.464Z,2.67
2023-05-24T19:13:55.826Z,3.30
2023-05-24T19:16:28.241Z,2.92
2023-05-24T19:19:01.066Z,3.05
2023-05-24T19:21:33.461Z,2.83
2023-05-24T19:24:06.484Z,3.10
2023-05-24T19:26:39.482Z,3.40
2023-05-24T19:29:11.813Z,3.35
2023-05-24T19:31:50.020Z,3.28
2023-05-24T19:34:22.425Z,3.15
2023-05-24T19:36:55.299Z,3.33
2023-05-24T19:39:27.602Z,3.05
2023-05-24T19:42:01.072Z,3.78
2023-05-24T19:44:33.603Z,4.28
2023-05-24T19:47:06.402Z,9.75
2023-05-24T19:49:38.736Z,8.73
2023-05-24T19:52:11.164Z,7.40
2023-05-24T19:54:43.534Z,5.78
2023-05-24T19:57:16.584Z,4.05
2023-05-24T19:59:48.916Z,4.20
2023-05-24T20:02:21.232Z,4.32
2023-05-24T20:04:53.560Z,4.53
2023-05-24T20:07:25.919Z,3.70
2023-05-24T20:09:58.523Z,3.70
2023-05-24T20:12:33.800Z,3.78
2023-05-24T20:15:07.809Z,4.30
2023-05-24T20:17:40.673Z,4.35
2023-05-24T20:20:13.100Z,4.32
2023-05-24T20:22:45.539Z,3.50
2023-05-24T20:25:19.130Z,3.35
2023-05-24T20:27:52.202Z,3.80
2023-05-24T20:30:24.939Z,3.03
2023-05-24T20:32:57.223Z,3.20
2023-05-24T20:35:30.424Z,3.22
2023-05-24T20:38:02.778Z,3.40
2023-05-24T20:40:35.094Z,2.85
2023-05-24T20:43:08.185Z,2.88
2023-05-24T20:45:41.016Z,3.05
2023-05-24T20:48:13.659Z,3.00
2023-05-24T20:50:46.005Z,3.28
2023-05-24T20:53:18.420Z,3.08
2023-05-24T20:55:50.802Z,3.03
2023-05-24T20:58:23.797Z,3.13
2023-05-24T21:00:56.256Z,3.70
2023-05-24T21:03:29.317Z,4.18
2023-05-24T21:06:01.969Z,4.95
2023-05-24T21:08:34.330Z,3.45
2023-05-24T21:11:06.747Z,3.05
2023-05-24T21:13:40.481Z,3.22
2023-05-24T21:16:12.864Z,4.57
2023-05-24T21:18:45.229Z,4.85
2023-05-24T21:21:17.670Z,5.03
2023-05-24T21:23:49.987Z,4.65
2023-05-24T21:26:22.370Z,4.97
2023-05-24T21:28:55.402Z,5.35
2023-05-24T21:31:29.905Z,5.35
2023-05-24T21:34:02.505Z,5.95
2023-05-24T21:36:35.697Z,8.18
2023-05-24T21:39:08.080Z,6.65
2023-05-24T21:41:40.765Z,5.57
2023-05-24T21:44:13.912Z,5.75
2023-05-24T21:46:46.289Z,5.13
2023-05-24T21:49:19.388Z,5.93
2023-05-24T21:51:51.814Z,4.78
2023-05-24T21:54:24.215Z,5.32
2023-05-24T21:56:56.633Z,5.15
2023-05-24T21:59:29.595Z,5.53
2023-05-24T22:02:01.936Z,5.22
2023-05-24T22:04:34.290Z,4.93
2023-05-24T22:07:06.680Z,3.83
2023-05-24T22:09:39.266Z,4.30
2023-05-24T22:12:11.608Z,5.22
2023-05-24T22:14:44.689Z,5.45
2023-05-24T22:17:17.062Z,4.30
2023-05-24T22:19:49.404Z,4.03
2023-05-24T22:22:22.142Z,3.40
2023-05-24T22:24:54.565Z,4.00
2023-05-24T22:27:27.046Z,3.80
2023-05-24T22:30:01.249Z,4.03
2023-05-24T22:32:33.999Z,3.20
2023-05-24T22:35:07.100Z,3.67
2023-05-24T22:37:39.455Z,3.78
2023-05-24T22:40:12.823Z,4.32
2023-05-24T22:42:45.168Z,3.97
2023-05-24T22:45:18.447Z,4.20
2023-05-24T22:47:50.820Z,4.88
2023-05-24T22:50:23.182Z,4.20
2023-05-24T22:52:55.955Z,4.10
2023-05-24T22:55:28.247Z,4.28
2023-05-24T22:58:01.123Z,4.38
2023-05-24T23:00:34.133Z,3.72
2023-05-24T23:03:07.069Z,3.53
2023-05-24T23:05:40.418Z,4.10
2023-05-24T23:08:12.858Z,5.30
2023-05-24T23:10:46.164Z,17.10
2023-05-24T23:13:18.552Z,33.58
2023-05-24T23:15:51.537Z,11.95
2023-05-24T23:18:25.651Z,30.15
2023-05-24T23:20:59.821Z,18.23
2023-05-24T23:23:32.156Z,6.63
2023-05-24T23:26:04.508Z,13.30
2023-05-24T23:28:36.873Z,4.90
2023-05-24T23:31:10.228Z,4.47
2023-05-24T23:33:42.571Z,6.25
2023-05-24T23:36:15.022Z,4.88
2023-05-24T23:38:47.367Z,4.90
2023-05-24T23:41:19.795Z,4.60
2023-05-24T23:43:52.119Z,5.38
2023-05-24T23:46:25.128Z,4.60
2023-05-24T23:48:57.523Z,5.78
2023-05-24T23:51:32.534Z,5.38
2023-05-24T23:54:05.076Z,5.15
2023-05-24T23:56:38.467Z,6.20
2023-05-24T23:59:10.956Z,5.47
